sensor_id;sensor_type;location;lat;lon;timestamp;pressure;altitude;pressure_sealevel;temperature;humidity
550;BME280;20066;48.764;9.176;2022-07-09T00:00:19;99328.16;;;19.10;47.86
550;BME280;20066;48.764;9.176;2022-07-09T00:02:47;99327.81;;;19.08;47.77
550;BME280;20066;48.764;9.176;2022-07-09T00:05:15;99326.31;;;18.42;49.20
550;BME280;20066;48.764;9.176;2022-07-09T00:07:43;99323.88;;;18.52;49.72
550;BME280;20066;48.764;9.176;2022-07-09T00:10:11;99321.25;;;18.44;49.54
550;BME280;20066;48.764;9.176;2022-07-09T00:12:40;99327.56;;;18.68;48.88
550;BME280;20066;48.764;9.176;2022-07-09T00:15:08;99323.94;;;18.78;48.25
550;BME280;20066;48.764;9.176;2022-07-09T00:17:36;99317.22;;;19.13;48.24
550;BME280;20066;48.764;9.176;2022-07-09T00:20:05;99314.97;;;18.78;48.10
550;BME280;20066;48.764;9.176;2022-07-09T00:22:33;99318.81;;;18.80;48.12
550;BME280;20066;48.764;9.176;2022-07-09T00:25:01;99306.44;;;19.03;47.42
550;BME280;20066;48.764;9.176;2022-07-09T00:27:29;99317.03;;;18.70;48.35
550;BME280;20066;48.764;9.176;2022-07-09T00:29:58;99312.28;;;18.74;48.18
550;BME280;20066;48.764;9.176;2022-07-09T00:32:26;99305.38;;;18.97;47.89
550;BME280;20066;48.764;9.176;2022-07-09T00:34:54;99305.44;;;18.93;47.38
550;BME280;20066;48.764;9.176;2022-07-09T00:37:22;99307.44;;;19.16;47.70
550;BME280;20066;48.764;9.176;2022-07-09T00:39:49;99304.09;;;19.05;47.36
550;BME280;20066;48.764;9.176;2022-07-09T00:42:17;99301.31;;;19.08;47.43
550;BME280;20066;48.764;9.176;2022-07-09T00:44:45;99286.47;;;18.82;48.45
550;BME280;20066;48.764;9.176;2022-07-09T00:47:14;99294.28;;;18.84;48.22
550;BME280;20066;48.764;9.176;2022-07-09T00:49:42;99296.31;;;18.46;49.51
550;BME280;20066;48.764;9.176;2022-07-09T00:52:12;99297.47;;;18.75;48.80
550;BME280;20066;48.764;9.176;2022-07-09T00:54:41;99287.75;;;18.74;48.71
550;BME280;20066;48.764;9.176;2022-07-09T00:57:10;99286.09;;;18.23;50.29
550;BME280;20066;48.764;9.176;2022-07-09T00:59:39;99280.19;;;18.28;49.94
550;BME280;20066;48.764;9.176;2022-07-09T01:02:09;99278.63;;;18.58;48.96
550;BME280;20066;48.764;9.176;2022-07-09T01:04:38;99274.13;;;18.47;49.82
550;BME280;20066;48.764;9.176;2022-07-09T01:07:06;99270.19;;;18.48;49.59
550;BME280;20066;48.764;9.176;2022-07-09T01:09:34;99265.56;;;18.45;49.47
550;BME280;20066;48.764;9.176;2022-07-09T01:12:02;99269.59;;;18.03;50.58
550;BME280;20066;48.764;9.176;2022-07-09T01:14:30;99268.25;;;17.81;51.13
550;BME280;20066;48.764;9.176;2022-07-09T01:16:59;99267.03;;;18.54;50.90
550;BME280;20066;48.764;9.176;2022-07-09T01:19:27;99269.50;;;18.41;50.13
550;BME280;20066;48.764;9.176;2022-07-09T01:21:57;99273.91;;;18.62;49.43
550;BME280;20066;48.764;9.176;2022-07-09T01:24:32;99267.56;;;18.41;50.01
550;BME280;20066;48.764;9.176;2022-07-09T01:27:00;99269.09;;;18.12;49.47
550;BME280;20066;48.764;9.176;2022-07-09T01:29:28;99265.69;;;18.04;50.00
550;BME280;20066;48.764;9.176;2022-07-09T01:31:56;99260.94;;;17.71;51.05
550;BME280;20066;48.764;9.176;2022-07-09T01:34:24;99257.53;;;18.35;49.18
550;BME280;20066;48.764;9.176;2022-07-09T01:36:51;99259.19;;;18.56;48.79
550;BME280;20066;48.764;9.176;2022-07-09T01:39:21;99253.25;;;17.66;50.73
550;BME280;20066;48.764;9.176;2022-07-09T01:41:48;99258.38;;;17.98;50.50
550;BME280;20066;48.764;9.176;2022-07-09T01:44:16;99253.38;;;17.89;50.29
550;BME280;20066;48.764;9.176;2022-07-09T01:46:44;99257.81;;;18.14;49.86
550;BME280;20066;48.764;9.176;2022-07-09T01:49:12;99255.25;;;17.96;50.82
550;BME280;20066;48.764;9.176;2022-07-09T01:51:40;99251.50;;;18.20;49.86
550;BME280;20066;48.764;9.176;2022-07-09T01:54:07;99246.72;;;17.56;50.84
550;BME280;20066;48.764;9.176;2022-07-09T01:56:36;99247.63;;;17.80;50.73
550;BME280;20066;48.764;9.176;2022-07-09T01:59:04;99247.03;;;17.65;51.34
550;BME280;20066;48.764;9.176;2022-07-09T02:01:32;99245.00;;;17.73;51.61
550;BME280;20066;48.764;9.176;2022-07-09T02:03:59;99246.47;;;17.44;52.12
550;BME280;20066;48.764;9.176;2022-07-09T02:06:27;99240.00;;;17.27;51.53
550;BME280;20066;48.764;9.176;2022-07-09T02:08:55;99234.41;;;17.82;50.98
550;BME280;20066;48.764;9.176;2022-07-09T02:11:23;99241.56;;;18.03;50.65
550;BME280;20066;48.764;9.176;2022-07-09T02:13:52;99233.94;;;17.91;51.54
550;BME280;20066;48.764;9.176;2022-07-09T02:16:19;99237.56;;;18.15;50.44
550;BME280;20066;48.764;9.176;2022-07-09T02:18:47;99244.00;;;18.28;50.43
550;BME280;20066;48.764;9.176;2022-07-09T02:21:15;99235.53;;;18.22;49.75
550;BME280;20066;48.764;9.176;2022-07-09T02:23:43;99237.75;;;18.31;50.07
550;BME280;20066;48.764;9.176;2022-07-09T02:26:11;99227.69;;;17.90;51.65
550;BME280;20066;48.764;9.176;2022-07-09T02:28:39;99230.38;;;17.60;51.33
550;BME280;20066;48.764;9.176;2022-07-09T02:31:09;99226.63;;;17.81;51.57
550;BME280;20066;48.764;9.176;2022-07-09T02:33:37;99230.78;;;17.58;51.86
550;BME280;20066;48.764;9.176;2022-07-09T02:36:05;99235.19;;;17.83;51.75
550;BME280;20066;48.764;9.176;2022-07-09T02:38:32;99233.59;;;17.85;51.36
550;BME280;20066;48.764;9.176;2022-07-09T02:41:01;99225.44;;;17.85;51.47
550;BME280;20066;48.764;9.176;2022-07-09T02:43:28;99221.28;;;17.73;51.59
550;BME280;20066;48.764;9.176;2022-07-09T02:45:56;99228.16;;;17.85;51.28
550;BME280;20066;48.764;9.176;2022-07-09T02:48:25;99226.00;;;17.69;51.29
550;BME280;20066;48.764;9.176;2022-07-09T02:50:54;99222.78;;;16.92;53.09
550;BME280;20066;48.764;9.176;2022-07-09T02:53:21;99226.25;;;17.45;52.56
550;BME280;20066;48.764;9.176;2022-07-09T02:55:49;99234.81;;;17.43;52.29
550;BME280;20066;48.764;9.176;2022-07-09T02:58:17;99237.38;;;17.61;52.00
550;BME280;20066;48.764;9.176;2022-07-09T03:00:44;99237.22;;;17.71;51.87
550;BME280;20066;48.764;9.176;2022-07-09T03:03:12;99238.75;;;17.76;52.23
550;BME280;20066;48.764;9.176;2022-07-09T03:05:41;99238.97;;;17.55;51.67
550;BME280;20066;48.764;9.176;2022-07-09T03:08:09;99231.38;;;17.73;51.51
550;BME280;20066;48.764;9.176;2022-07-09T03:10:37;99237.53;;;17.81;51.89
550;BME280;20066;48.764;9.176;2022-07-09T03:13:05;99233.59;;;17.85;51.00
550;BME280;20066;48.764;9.176;2022-07-09T03:15:38;99239.53;;;17.36;52.37
550;BME280;20066;48.764;9.176;2022-07-09T03:18:05;99230.22;;;17.74;51.66
550;BME280;20066;48.764;9.176;2022-07-09T03:20:35;99234.56;;;17.68;51.31
550;BME280;20066;48.764;9.176;2022-07-09T03:23:04;99237.84;;;17.49;52.04
550;BME280;20066;48.764;9.176;2022-07-09T03:25:32;99237.44;;;17.09;53.28
550;BME280;20066;48.764;9.176;2022-07-09T03:28:00;99240.25;;;17.43;52.82
550;BME280;20066;48.764;9.176;2022-07-09T03:30:28;99241.63;;;17.21;53.18
550;BME280;20066;48.764;9.176;2022-07-09T03:32:57;99240.00;;;17.27;52.92
550;BME280;20066;48.764;9.176;2022-07-09T03:35:25;99238.84;;;17.24;52.73
550;BME280;20066;48.764;9.176;2022-07-09T03:37:52;99237.16;;;17.41;52.41
550;BME280;20066;48.764;9.176;2022-07-09T03:40:22;99246.38;;;17.54;51.81
550;BME280;20066;48.764;9.176;2022-07-09T03:42:50;99242.41;;;17.62;51.84
550;BME280;20066;48.764;9.176;2022-07-09T03:45:17;99246.19;;;17.31;52.36
550;BME280;20066;48.764;9.176;2022-07-09T03:47:45;99245.25;;;17.48;52.55
550;BME280;20066;48.764;9.176;2022-07-09T03:50:14;99243.19;;;17.59;51.71
550;BME280;20066;48.764;9.176;2022-07-09T03:52:42;99244.28;;;17.69;52.43
550;BME280;20066;48.764;9.176;2022-07-09T03:55:10;99249.44;;;17.56;52.19
550;BME280;20066;48.764;9.176;2022-07-09T03:57:39;99237.59;;;17.73;51.82
550;BME280;20066;48.764;9.176;2022-07-09T04:00:09;99243.28;;;17.49;52.05
550;BME280;20066;48.764;9.176;2022-07-09T04:02:37;99244.78;;;17.57;52.54
550;BME280;20066;48.764;9.176;2022-07-09T04:05:06;99244.59;;;17.33;52.50
550;BME280;20066;48.764;9.176;2022-07-09T04:07:35;99247.31;;;17.37;52.76
550;BME280;20066;48.764;9.176;2022-07-09T04:10:04;99249.78;;;17.17;53.28
550;BME280;20066;48.764;9.176;2022-07-09T04:12:31;99251.44;;;17.01;53.67
550;BME280;20066;48.764;9.176;2022-07-09T04:15:01;99251.06;;;17.50;52.67
550;BME280;20066;48.764;9.176;2022-07-09T04:17:28;99259.06;;;17.68;52.75
550;BME280;20066;48.764;9.176;2022-07-09T04:19:56;99254.88;;;17.56;51.94
550;BME280;20066;48.764;9.176;2022-07-09T04:22:24;99258.44;;;17.87;52.00
550;BME280;20066;48.764;9.176;2022-07-09T04:24:57;99259.88;;;18.02;51.14
550;BME280;20066;48.764;9.176;2022-07-09T04:27:25;99257.69;;;17.87;51.47
550;BME280;20066;48.764;9.176;2022-07-09T04:29:52;99261.09;;;17.98;51.43
550;BME280;20066;48.764;9.176;2022-07-09T04:32:21;99270.00;;;17.61;52.13
550;BME280;20066;48.764;9.176;2022-07-09T04:34:49;99261.31;;;17.77;51.46
550;BME280;20066;48.764;9.176;2022-07-09T04:37:17;99270.16;;;17.84;51.67
550;BME280;20066;48.764;9.176;2022-07-09T04:39:45;99271.72;;;17.85;51.22
550;BME280;20066;48.764;9.176;2022-07-09T04:42:13;99263.81;;;17.94;51.51
550;BME280;20066;48.764;9.176;2022-07-09T04:44:40;99257.66;;;17.08;52.90
550;BME280;20066;48.764;9.176;2022-07-09T04:47:09;99263.22;;;17.39;53.03
550;BME280;20066;48.764;9.176;2022-07-09T04:49:38;99264.22;;;17.55;52.70
550;BME280;20066;48.764;9.176;2022-07-09T04:52:07;99264.75;;;17.81;51.34
550;BME280;20066;48.764;9.176;2022-07-09T04:54:35;99254.75;;;17.70;51.76
550;BME280;20066;48.764;9.176;2022-07-09T04:57:03;99264.41;;;17.34;52.78
550;BME280;20066;48.764;9.176;2022-07-09T04:59:31;99257.28;;;17.47;52.77
550;BME280;20066;48.764;9.176;2022-07-09T05:01:59;99268.84;;;17.62;52.17
550;BME280;20066;48.764;9.176;2022-07-09T05:04:26;99263.19;;;17.80;51.97
550;BME280;20066;48.764;9.176;2022-07-09T05:06:56;99258.81;;;17.93;51.60
550;BME280;20066;48.764;9.176;2022-07-09T05:09:25;99260.56;;;17.72;51.56
550;BME280;20066;48.764;9.176;2022-07-09T05:11:52;99249.66;;;17.72;51.75
550;BME280;20066;48.764;9.176;2022-07-09T05:14:20;99255.31;;;17.89;51.90
550;BME280;20066;48.764;9.176;2022-07-09T05:16:48;99255.66;;;17.94;51.53
550;BME280;20066;48.764;9.176;2022-07-09T05:19:16;99259.16;;;17.98;51.31
550;BME280;20066;48.764;9.176;2022-07-09T05:21:44;99252.53;;;17.58;52.27
550;BME280;20066;48.764;9.176;2022-07-09T05:24:13;99250.13;;;18.05;52.28
550;BME280;20066;48.764;9.176;2022-07-09T05:26:41;99248.50;;;18.68;49.88
550;BME280;20066;48.764;9.176;2022-07-09T05:29:08;99250.16;;;18.62;50.44
550;BME280;20066;48.764;9.176;2022-07-09T05:31:36;99253.13;;;18.44;50.52
550;BME280;20066;48.764;9.176;2022-07-09T05:34:04;99251.22;;;18.41;51.08
550;BME280;20066;48.764;9.176;2022-07-09T05:36:32;99255.63;;;18.89;49.82
550;BME280;20066;48.764;9.176;2022-07-09T05:39:00;99252.97;;;18.82;50.11
550;BME280;20066;48.764;9.176;2022-07-09T05:41:29;99244.47;;;18.49;50.46
550;BME280;20066;48.764;9.176;2022-07-09T05:43:57;99246.09;;;18.74;49.37
550;BME280;20066;48.764;9.176;2022-07-09T05:46:25;99254.84;;;19.15;48.65
550;BME280;20066;48.764;9.176;2022-07-09T05:48:53;99253.13;;;19.02;48.94
550;BME280;20066;48.764;9.176;2022-07-09T05:51:21;99257.66;;;18.85;50.15
550;BME280;20066;48.764;9.176;2022-07-09T05:53:48;99261.53;;;19.11;49.35
550;BME280;20066;48.764;9.176;2022-07-09T05:56:16;99267.16;;;17.71;51.69
550;BME280;20066;48.764;9.176;2022-07-09T05:58:46;99265.75;;;18.31;50.16
550;BME280;20066;48.764;9.176;2022-07-09T06:01:14;99272.91;;;17.81;51.52
550;BME280;20066;48.764;9.176;2022-07-09T06:03:42;99261.84;;;19.16;49.66
550;BME280;20066;48.764;9.176;2022-07-09T06:06:10;99259.03;;;19.67;47.70
550;BME280;20066;48.764;9.176;2022-07-09T06:08:38;99263.78;;;19.62;47.39
550;BME280;20066;48.764;9.176;2022-07-09T06:11:05;99259.44;;;19.42;47.66
550;BME280;20066;48.764;9.176;2022-07-09T06:13:33;99265.09;;;19.78;47.55
550;BME280;20066;48.764;9.176;2022-07-09T06:16:03;99252.69;;;19.50;47.82
550;BME280;20066;48.764;9.176;2022-07-09T06:18:30;99263.25;;;19.24;49.28
550;BME280;20066;48.764;9.176;2022-07-09T06:20:59;99256.69;;;20.48;45.95
550;BME280;20066;48.764;9.176;2022-07-09T06:23:28;99263.13;;;20.73;46.27
550;BME280;20066;48.764;9.176;2022-07-09T06:25:55;99262.09;;;20.67;44.84
550;BME280;20066;48.764;9.176;2022-07-09T06:28:23;99251.06;;;19.95;46.27
550;BME280;20066;48.764;9.176;2022-07-09T06:30:51;99258.56;;;20.31;45.90
550;BME280;20066;48.764;9.176;2022-07-09T06:33:20;99254.88;;;20.57;45.35
550;BME280;20066;48.764;9.176;2022-07-09T06:35:48;99252.66;;;20.52;45.18
550;BME280;20066;48.764;9.176;2022-07-09T06:38:15;99257.03;;;20.66;43.96
550;BME280;20066;48.764;9.176;2022-07-09T06:40:43;99262.47;;;21.02;43.86
550;BME280;20066;48.764;9.176;2022-07-09T06:43:11;99256.41;;;21.10;45.07
550;BME280;20066;48.764;9.176;2022-07-09T06:45:39;99247.19;;;20.52;44.37
550;BME280;20066;48.764;9.176;2022-07-09T06:48:07;99247.13;;;21.24;43.06
550;BME280;20066;48.764;9.176;2022-07-09T06:50:37;99248.97;;;20.79;43.04
550;BME280;20066;48.764;9.176;2022-07-09T06:53:05;99235.34;;;21.56;43.16
550;BME280;20066;48.764;9.176;2022-07-09T06:55:33;99247.91;;;21.82;42.12
550;BME280;20066;48.764;9.176;2022-07-09T06:58:00;99247.09;;;21.40;42.14
550;BME280;20066;48.764;9.176;2022-07-09T07:00:28;99241.63;;;21.08;42.58
550;BME280;20066;48.764;9.176;2022-07-09T07:02:56;99246.41;;;22.23;42.06
550;BME280;20066;48.764;9.176;2022-07-09T07:05:26;99242.28;;;22.44;39.80
550;BME280;20066;48.764;9.176;2022-07-09T07:07:55;99238.63;;;21.80;41.34
550;BME280;20066;48.764;9.176;2022-07-09T07:10:24;99237.31;;;21.23;42.73
550;BME280;20066;48.764;9.176;2022-07-09T07:12:53;99234.00;;;22.06;42.52
550;BME280;20066;48.764;9.176;2022-07-09T07:15:21;99228.75;;;22.11;42.31
550;BME280;20066;48.764;9.176;2022-07-09T07:17:49;99245.94;;;22.12;42.01
550;BME280;20066;48.764;9.176;2022-07-09T07:20:24;99243.78;;;21.62;42.85
550;BME280;20066;48.764;9.176;2022-07-09T07:22:52;99246.75;;;21.38;43.74
550;BME280;20066;48.764;9.176;2022-07-09T07:25:21;99239.91;;;22.84;41.28
550;BME280;20066;48.764;9.176;2022-07-09T07:27:49;99233.00;;;22.12;42.23
550;BME280;20066;48.764;9.176;2022-07-09T07:30:16;99237.50;;;22.73;41.58
550;BME280;20066;48.764;9.176;2022-07-09T07:32:44;99234.06;;;22.56;41.09
550;BME280;20066;48.764;9.176;2022-07-09T07:35:12;99233.66;;;22.71;40.72
550;BME280;20066;48.764;9.176;2022-07-09T07:37:40;99233.91;;;23.23;40.14
550;BME280;20066;48.764;9.176;2022-07-09T07:40:09;99237.59;;;23.55;40.16
550;BME280;20066;48.764;9.176;2022-07-09T07:42:38;99240.66;;;22.97;40.73
550;BME280;20066;48.764;9.176;2022-07-09T07:45:07;99232.41;;;22.59;41.78
550;BME280;20066;48.764;9.176;2022-07-09T07:47:35;99231.66;;;23.56;40.38
550;BME280;20066;48.764;9.176;2022-07-09T07:50:04;99232.34;;;23.91;40.87
550;BME280;20066;48.764;9.176;2022-07-09T07:52:32;99233.88;;;24.67;37.97
550;BME280;20066;48.764;9.176;2022-07-09T07:54:59;99236.84;;;24.90;35.97
550;BME280;20066;48.764;9.176;2022-07-09T07:57:27;99243.84;;;25.31;36.53
550;BME280;20066;48.764;9.176;2022-07-09T07:59:56;99236.31;;;25.05;35.70
550;BME280;20066;48.764;9.176;2022-07-09T08:02:24;99225.31;;;23.34;39.08
550;BME280;20066;48.764;9.176;2022-07-09T08:04:52;99226.06;;;23.00;40.92
550;BME280;20066;48.764;9.176;2022-07-09T08:07:20;99219.47;;;23.79;38.74
550;BME280;20066;48.764;9.176;2022-07-09T08:09:47;99220.03;;;23.74;39.28
550;BME280;20066;48.764;9.176;2022-07-09T08:12:15;99229.66;;;24.44;37.44
550;BME280;20066;48.764;9.176;2022-07-09T08:14:43;99230.56;;;23.54;38.95
550;BME280;20066;48.764;9.176;2022-07-09T08:17:12;99229.16;;;24.76;39.37
550;BME280;20066;48.764;9.176;2022-07-09T08:19:40;99229.22;;;24.85;37.85
550;BME280;20066;48.764;9.176;2022-07-09T08:22:08;99232.38;;;26.57;38.41
550;BME280;20066;48.764;9.176;2022-07-09T08:24:36;99225.59;;;24.27;38.20
550;BME280;20066;48.764;9.176;2022-07-09T08:27:04;99222.25;;;25.39;36.10
550;BME280;20066;48.764;9.176;2022-07-09T08:29:31;99223.28;;;24.25;37.61
550;BME280;20066;48.764;9.176;2022-07-09T08:31:59;99221.50;;;26.54;39.31
550;BME280;20066;48.764;9.176;2022-07-09T08:34:30;99211.56;;;26.05;35.27
550;BME280;20066;48.764;9.176;2022-07-09T08:36:58;99211.44;;;26.83;33.56
550;BME280;20066;48.764;9.176;2022-07-09T08:39:26;99213.41;;;26.50;34.20
550;BME280;20066;48.764;9.176;2022-07-09T08:41:54;99216.06;;;24.89;36.93
550;BME280;20066;48.764;9.176;2022-07-09T08:44:26;99205.97;;;26.23;36.33
550;BME280;20066;48.764;9.176;2022-07-09T08:46:56;99213.28;;;26.44;37.76
550;BME280;20066;48.764;9.176;2022-07-09T08:49:27;99201.19;;;26.75;36.24
550;BME280;20066;48.764;9.176;2022-07-09T08:51:57;99202.69;;;26.43;35.66
550;BME280;20066;48.764;9.176;2022-07-09T08:54:25;99199.88;;;25.92;36.54
550;BME280;20066;48.764;9.176;2022-07-09T08:56:53;99205.25;;;25.04;37.80
550;BME280;20066;48.764;9.176;2022-07-09T08:59:21;99201.34;;;25.51;35.18
550;BME280;20066;48.764;9.176;2022-07-09T09:01:49;99190.53;;;25.07;35.22
550;BME280;20066;48.764;9.176;2022-07-09T09:04:17;99181.56;;;25.52;37.25
550;BME280;20066;48.764;9.176;2022-07-09T09:06:45;99189.00;;;27.53;37.28
550;BME280;20066;48.764;9.176;2022-07-09T09:09:19;99184.56;;;26.51;37.32
550;BME280;20066;48.764;9.176;2022-07-09T09:11:57;99181.75;;;27.70;31.29
550;BME280;20066;48.764;9.176;2022-07-09T09:14:29;99185.25;;;25.49;34.27
550;BME280;20066;48.764;9.176;2022-07-09T09:17:04;99176.78;;;25.89;33.51
550;BME280;20066;48.764;9.176;2022-07-09T09:19:33;99174.97;;;27.18;36.03
550;BME280;20066;48.764;9.176;2022-07-09T09:22:00;99173.97;;;27.69;34.19
550;BME280;20066;48.764;9.176;2022-07-09T09:24:30;99161.69;;;27.31;32.45
550;BME280;20066;48.764;9.176;2022-07-09T09:26:58;99169.06;;;27.64;32.87
550;BME280;20066;48.764;9.176;2022-07-09T09:29:26;99170.16;;;26.47;33.85
550;BME280;20066;48.764;9.176;2022-07-09T09:31:54;99162.03;;;26.01;37.58
550;BME280;20066;48.764;9.176;2022-07-09T09:34:23;99167.06;;;26.87;33.30
550;BME280;20066;48.764;9.176;2022-07-09T09:36:51;99163.50;;;27.34;33.37
550;BME280;20066;48.764;9.176;2022-07-09T09:39:22;99163.72;;;28.48;34.13
550;BME280;20066;48.764;9.176;2022-07-09T09:41:53;99159.53;;;27.50;35.21
550;BME280;20066;48.764;9.176;2022-07-09T09:44:23;99153.44;;;26.83;34.46
550;BME280;20066;48.764;9.176;2022-07-09T09:46:53;99145.31;;;29.00;36.01
550;BME280;20066;48.764;9.176;2022-07-09T09:49:21;99154.44;;;29.27;32.90
550;BME280;20066;48.764;9.176;2022-07-09T09:51:51;99150.53;;;28.58;31.72
550;BME280;20066;48.764;9.176;2022-07-09T09:54:20;99151.34;;;28.44;30.24
550;BME280;20066;48.764;9.176;2022-07-09T09:56:49;99151.31;;;29.65;33.27
550;BME280;20066;48.764;9.176;2022-07-09T09:59:18;99136.03;;;27.31;32.84
550;BME280;20066;48.764;9.176;2022-07-09T10:01:46;99137.91;;;27.25;32.89
550;BME280;20066;48.764;9.176;2022-07-09T10:04:14;99135.00;;;27.28;33.48
550;BME280;20066;48.764;9.176;2022-07-09T10:06:45;99136.16;;;28.24;34.96
550;BME280;20066;48.764;9.176;2022-07-09T10:09:14;99127.50;;;27.73;33.45
550;BME280;20066;48.764;9.176;2022-07-09T10:11:44;99127.41;;;27.82;31.91
550;BME280;20066;48.764;9.176;2022-07-09T10:14:28;99122.59;;;27.91;32.64
550;BME280;20066;48.764;9.176;2022-07-09T10:17:09;99130.44;;;31.40;29.37
550;BME280;20066;48.764;9.176;2022-07-09T10:19:38;99134.19;;;32.65;25.82
550;BME280;20066;48.764;9.176;2022-07-09T10:22:06;99129.16;;;28.99;29.97
550;BME280;20066;48.764;9.176;2022-07-09T10:24:37;99127.06;;;28.39;30.06
550;BME280;20066;48.764;9.176;2022-07-09T10:27:06;99114.97;;;31.22;33.64
550;BME280;20066;48.764;9.176;2022-07-09T10:29:54;99120.09;;;30.76;35.10
550;BME280;20066;48.764;9.176;2022-07-09T10:32:26;99119.97;;;29.33;27.81
550;BME280;20066;48.764;9.176;2022-07-09T10:34:57;99120.09;;;31.68;30.39
550;BME280;20066;48.764;9.176;2022-07-09T10:37:33;99116.06;;;30.34;26.88
550;BME280;20066;48.764;9.176;2022-07-09T10:40:09;99117.16;;;28.67;28.26
550;BME280;20066;48.764;9.176;2022-07-09T10:42:38;99113.97;;;27.60;30.55
550;BME280;20066;48.764;9.176;2022-07-09T10:45:23;99108.13;;;27.29;31.63
550;BME280;20066;48.764;9.176;2022-07-09T10:47:53;99107.16;;;28.55;29.97
550;BME280;20066;48.764;9.176;2022-07-09T10:50:21;99115.88;;;27.98;32.91
550;BME280;20066;48.764;9.176;2022-07-09T10:52:49;99114.50;;;28.23;30.66
550;BME280;20066;48.764;9.176;2022-07-09T10:55:18;99112.50;;;32.13;23.17
550;BME280;20066;48.764;9.176;2022-07-09T10:57:46;99111.16;;;35.34;26.17
550;BME280;20066;48.764;9.176;2022-07-09T11:00:15;99106.41;;;30.67;26.61
550;BME280;20066;48.764;9.176;2022-07-09T11:02:55;99112.78;;;28.60;28.81
550;BME280;20066;48.764;9.176;2022-07-09T11:05:24;99102.19;;;30.03;28.35
550;BME280;20066;48.764;9.176;2022-07-09T11:07:56;99108.91;;;28.52;27.86
550;BME280;20066;48.764;9.176;2022-07-09T11:10:25;99092.22;;;27.68;28.73
550;BME280;20066;48.764;9.176;2022-07-09T11:12:54;99099.75;;;29.27;28.60
550;BME280;20066;48.764;9.176;2022-07-09T11:15:25;99100.31;;;28.50;28.74
550;BME280;20066;48.764;9.176;2022-07-09T11:17:59;99093.69;;;27.25;30.18
550;BME280;20066;48.764;9.176;2022-07-09T11:20:28;99092.31;;;27.29;29.63
550;BME280;20066;48.764;9.176;2022-07-09T11:22:56;99090.94;;;26.62;31.00
550;BME280;20066;48.764;9.176;2022-07-09T11:25:27;99099.84;;;27.73;31.49
550;BME280;20066;48.764;9.176;2022-07-09T11:27:55;99093.34;;;27.46;30.83
550;BME280;20066;48.764;9.176;2022-07-09T11:30:23;99097.09;;;27.29;30.90
550;BME280;20066;48.764;9.176;2022-07-09T11:32:51;99093.16;;;27.79;31.02
550;BME280;20066;48.764;9.176;2022-07-09T11:35:31;99085.06;;;26.22;33.96
550;BME280;20066;48.764;9.176;2022-07-09T11:38:01;99088.31;;;27.45;31.49
550;BME280;20066;48.764;9.176;2022-07-09T11:40:30;99092.97;;;28.12;31.48
550;BME280;20066;48.764;9.176;2022-07-09T11:42:58;99088.34;;;26.68;33.15
550;BME280;20066;48.764;9.176;2022-07-09T11:45:27;99079.25;;;27.30;32.02
550;BME280;20066;48.764;9.176;2022-07-09T11:48:03;99084.22;;;27.40;32.35
550;BME280;20066;48.764;9.176;2022-07-09T11:50:41;99081.56;;;26.69;33.52
550;BME280;20066;48.764;9.176;2022-07-09T11:53:19;99082.22;;;27.85;31.51
550;BME280;20066;48.764;9.176;2022-07-09T11:55:57;99074.91;;;28.17;32.00
550;BME280;20066;48.764;9.176;2022-07-09T11:58:25;99076.97;;;28.57;30.99
550;BME280;20066;48.764;9.176;2022-07-09T12:00:53;99073.88;;;28.69;29.63
550;BME280;20066;48.764;9.176;2022-07-09T12:03:24;99076.28;;;32.19;25.40
550;BME280;20066;48.764;9.176;2022-07-09T12:05:54;99072.50;;;32.28;24.96
550;BME280;20066;48.764;9.176;2022-07-09T12:08:28;99064.97;;;32.86;25.08
550;BME280;20066;48.764;9.176;2022-07-09T12:10:57;99070.56;;;33.27;23.71
550;BME280;20066;48.764;9.176;2022-07-09T12:13:25;99061.38;;;32.11;25.22
550;BME280;20066;48.764;9.176;2022-07-09T12:15:52;99068.97;;;32.33;25.97
550;BME280;20066;48.764;9.176;2022-07-09T12:18:20;99057.22;;;33.50;23.33
550;BME280;20066;48.764;9.176;2022-07-09T12:20:48;99058.94;;;32.71;24.13
550;BME280;20066;48.764;9.176;2022-07-09T12:23:17;99050.97;;;31.17;27.96
550;BME280;20066;48.764;9.176;2022-07-09T12:25:45;99046.53;;;28.57;31.43
550;BME280;20066;48.764;9.176;2022-07-09T12:28:13;99045.19;;;27.97;30.94
550;BME280;20066;48.764;9.176;2022-07-09T12:30:41;99037.53;;;26.89;33.95
550;BME280;20066;48.764;9.176;2022-07-09T12:33:11;99043.13;;;27.92;32.61
550;BME280;20066;48.764;9.176;2022-07-09T12:35:39;99039.22;;;28.39;33.08
550;BME280;20066;48.764;9.176;2022-07-09T12:38:06;99025.06;;;29.49;29.24
550;BME280;20066;48.764;9.176;2022-07-09T12:40:36;99022.22;;;30.07;29.99
550;BME280;20066;48.764;9.176;2022-07-09T12:43:03;99013.91;;;30.07;27.91
550;BME280;20066;48.764;9.176;2022-07-09T12:45:31;99021.56;;;32.38;28.43
550;BME280;20066;48.764;9.176;2022-07-09T12:47:59;99020.72;;;36.63;19.71
550;BME280;20066;48.764;9.176;2022-07-09T12:50:26;99020.09;;;34.95;21.59
550;BME280;20066;48.764;9.176;2022-07-09T12:52:54;99015.34;;;31.93;24.81
550;BME280;20066;48.764;9.176;2022-07-09T12:55:22;99015.34;;;33.80;23.00
550;BME280;20066;48.764;9.176;2022-07-09T12:57:51;99015.91;;;34.46;22.04
550;BME280;20066;48.764;9.176;2022-07-09T13:00:19;99009.38;;;30.63;26.96
550;BME280;20066;48.764;9.176;2022-07-09T13:02:48;99005.22;;;33.77;23.67
550;BME280;20066;48.764;9.176;2022-07-09T13:05:15;98998.28;;;34.08;23.36
550;BME280;20066;48.764;9.176;2022-07-09T13:07:43;99001.75;;;35.77;20.52
550;BME280;20066;48.764;9.176;2022-07-09T13:10:11;98996.28;;;39.57;16.77
550;BME280;20066;48.764;9.176;2022-07-09T13:12:39;98994.19;;;36.51;20.01
550;BME280;20066;48.764;9.176;2022-07-09T13:15:09;98989.94;;;33.53;23.43
550;BME280;20066;48.764;9.176;2022-07-09T13:17:37;98987.03;;;31.56;25.26
550;BME280;20066;48.764;9.176;2022-07-09T13:20:07;98982.94;;;32.59;24.03
550;BME280;20066;48.764;9.176;2022-07-09T13:22:35;98975.34;;;34.15;22.60
550;BME280;20066;48.764;9.176;2022-07-09T13:25:03;98983.22;;;34.78;22.28
550;BME280;20066;48.764;9.176;2022-07-09T13:27:31;98973.09;;;35.71;21.94
550;BME280;20066;48.764;9.176;2022-07-09T13:29:59;98967.81;;;35.03;21.48